createdAt,value
2018-12-04T00:00:56.849Z,99631.46
2018-12-04T00:03:24.586Z,99633.31
2018-12-04T00:05:53.202Z,99632.48
2018-12-04T00:08:20.825Z,99624.16
2018-12-04T00:10:48.595Z,99629.26
2018-12-04T00:13:16.393Z,99638.10
2018-12-04T00:15:45.026Z,99640.88
2018-12-04T00:18:13.385Z,99641.30
2018-12-04T00:20:41.048Z,99647.49
2018-12-04T00:23:08.794Z,99656.05
2018-12-04T00:25:36.583Z,99656.13
2018-12-04T00:28:04.199Z,99654.88
2018-12-04T00:30:32.638Z,99649.69
2018-12-04T00:33:00.258Z,99654.64
2018-12-04T00:35:28.079Z,99650.98
2018-12-04T00:37:56.701Z,99655.19
2018-12-04T00:40:25.210Z,99655.64
2018-12-04T00:42:52.898Z,99654.26
2018-12-04T00:45:20.586Z,99667.46
2018-12-04T00:47:48.377Z,99668.43
2018-12-04T00:50:16.890Z,99670.64
2018-12-04T00:52:45.111Z,99667.09
2018-12-04T00:55:13.600Z,99682.03
2018-12-04T00:57:43.194Z,99678.28
2018-12-04T01:00:11.944Z,99684.84
2018-12-04T01:02:39.743Z,99688.90
2018-12-04T01:05:07.454Z,99684.62
2018-12-04T01:07:36.053Z,99682.77
2018-12-04T01:10:05.578Z,99689.95
2018-12-04T01:12:33.356Z,99687.97
2018-12-04T01:15:01.828Z,99692.17
2018-12-04T01:17:30.368Z,99692.55
2018-12-04T01:19:58.017Z,99698.20
2018-12-04T01:22:26.543Z,99699.26
2018-12-04T01:24:55.051Z,99705.14
2018-12-04T01:27:23.761Z,99701.64
2018-12-04T01:29:51.376Z,99699.11
2018-12-04T01:32:18.967Z,99696.66
2018-12-04T01:34:47.555Z,99697.59
2018-12-04T01:37:16.132Z,99699.27
2018-12-04T01:39:45.541Z,99695.09
2018-12-04T01:42:14.850Z,99700.56
2018-12-04T01:44:42.643Z,99697.63
2018-12-04T01:47:10.328Z,99698.86
2018-12-04T01:49:38.035Z,99699.05
2018-12-04T01:52:06.443Z,99698.67
2018-12-04T01:54:34.117Z,99702.52
2018-12-04T01:57:02.841Z,99700.07
2018-12-04T01:59:31.449Z,99705.94
2018-12-04T02:01:59.915Z,99706.81
2018-12-04T02:04:27.600Z,99699.97
2018-12-04T02:06:55.247Z,99701.86
2018-12-04T02:09:23.869Z,99708.05
2018-12-04T02:11:52.575Z,99709.59
2018-12-04T02:14:20.355Z,99711.70
2018-12-04T02:16:49.066Z,99711.39
2018-12-04T02:19:17.780Z,99713.98
2018-12-04T02:21:46.398Z,99712.56
2018-12-04T02:24:14.911Z,99717.30
2018-12-04T02:26:43.967Z,99724.50
2018-12-04T02:29:12.581Z,99719.64
2018-12-04T02:31:41.135Z,99717.38
2018-12-04T02:34:09.571Z,99719.77
2018-12-04T02:36:37.257Z,99729.85
2018-12-04T02:39:06.803Z,99730.22
2018-12-04T02:41:35.336Z,99728.92
2018-12-04T02:44:03.158Z,99737.59
2018-12-04T02:46:32.122Z,99741.12
2018-12-04T02:48:59.780Z,99745.39
2018-12-04T02:51:28.509Z,99739.02
2018-12-04T02:53:56.334Z,99743.38
2018-12-04T02:56:24.029Z,99745.05
2018-12-04T02:58:51.730Z,99748.55
2018-12-04T03:01:20.227Z,99761.94
2018-12-04T03:03:48.014Z,99767.81
2018-12-04T03:06:16.737Z,99770.05
2018-12-04T03:08:45.264Z,99765.91
2018-12-04T03:11:14.325Z,99769.77
2018-12-04T03:13:43.712Z,99774.59
2018-12-04T03:16:11.496Z,99779.86
2018-12-04T03:18:40.084Z,99786.32
2018-12-04T03:21:07.773Z,99791.38
2018-12-04T03:23:36.318Z,99791.62
2018-12-04T03:26:04.055Z,99798.33
2018-12-04T03:28:31.783Z,99792.42
2018-12-04T03:30:59.584Z,99797.72
2018-12-04T03:33:36.910Z,99799.20
2018-12-04T03:36:05.374Z,99798.14
2018-12-04T03:38:33.219Z,99805.54
2018-12-04T03:41:01.750Z,99811.58
2018-12-04T03:43:29.531Z,99814.40
2018-12-04T03:45:58.056Z,99824.61
2018-12-04T03:48:26.476Z,99828.05
2018-12-04T03:50:54.081Z,99844.95
2018-12-04T03:53:21.862Z,99863.56
2018-12-04T03:55:49.662Z,99871.20
2018-12-04T03:58:17.466Z,99884.03
2018-12-04T04:00:45.996Z,99898.34
2018-12-04T04:03:13.784Z,99903.31
2018-12-04T04:05:41.480Z,99907.59
2018-12-04T04:08:09.267Z,99920.29
2018-12-04T04:10:37.060Z,99940.33
2018-12-04T04:13:04.857Z,99955.46
2018-12-04T04:15:32.652Z,99957.57
2018-12-04T04:18:00.284Z,99955.16
2018-12-04T04:20:27.900Z,99962.55
2018-12-04T04:22:55.524Z,99972.68
2018-12-04T04:25:23.145Z,99971.80
2018-12-04T04:27:50.799Z,99981.80
2018-12-04T04:30:18.423Z,99985.90
2018-12-04T04:32:46.189Z,100006.93
2018-12-04T04:35:14.706Z,100010.19
2018-12-04T04:37:42.581Z,100010.05
2018-12-04T04:40:10.250Z,100020.75
2018-12-04T04:42:37.953Z,100021.82
2018-12-04T04:45:06.010Z,100032.03
2018-12-04T04:47:33.653Z,100043.13
2018-12-04T04:50:01.302Z,100051.10
2018-12-04T04:52:28.940Z,100053.36
2018-12-04T04:54:56.735Z,100059.41
2018-12-04T04:57:24.636Z,100073.53
2018-12-04T04:59:53.347Z,100070.75
2018-12-04T05:02:20.968Z,100089.84
2018-12-04T05:04:48.722Z,100090.95
2018-12-04T05:07:16.349Z,100100.86
2018-12-04T05:09:44.813Z,100110.78
2018-12-04T05:12:12.636Z,100108.98
2018-12-04T05:14:40.333Z,100128.34
2018-12-04T05:17:08.110Z,100133.98
2018-12-04T05:19:35.734Z,100137.80
2018-12-04T05:22:04.322Z,100137.99
2018-12-04T05:24:32.013Z,100146.50
2018-12-04T05:26:59.714Z,100149.28
2018-12-04T05:29:27.507Z,100160.10
2018-12-04T05:31:56.241Z,100164.45
2018-12-04T05:34:24.067Z,100173.06
2018-12-04T05:36:52.651Z,100194.62
2018-12-04T05:39:20.331Z,100192.56
2018-12-04T05:41:48.132Z,100198.33
2018-12-04T05:44:15.921Z,100208.95
2018-12-04T05:46:43.546Z,100218.41
2018-12-04T05:49:11.168Z,100221.38
2018-12-04T05:51:38.892Z,100237.64
2018-12-04T05:54:10.512Z,100247.59
2018-12-04T05:56:39.192Z,100250.46
2018-12-04T05:59:07.915Z,100255.50
2018-12-04T06:01:35.531Z,100269.62
2018-12-04T06:04:03.212Z,100280.05
2018-12-04T06:06:30.883Z,100278.23
2018-12-04T06:08:58.685Z,100285.13
2018-12-04T06:11:26.485Z,100290.94
2018-12-04T06:13:54.280Z,100291.33
2018-12-04T06:16:21.898Z,100298.30
2018-12-04T06:18:49.527Z,100317.24
2018-12-04T06:21:17.339Z,100324.95
2018-12-04T06:23:45.870Z,100327.88
2018-12-04T06:26:13.572Z,100333.25
2018-12-04T06:28:41.356Z,100340.95
2018-12-04T06:31:08.991Z,100345.36
2018-12-04T06:33:36.667Z,100347.67
2018-12-04T06:36:04.283Z,100348.61
2018-12-04T06:38:32.720Z,100365.36
2018-12-04T06:41:01.322Z,100372.29
2018-12-04T06:43:30.004Z,100374.71
2018-12-04T06:45:57.626Z,100389.45
2018-12-04T06:48:26.101Z,100391.42
2018-12-04T06:50:54.540Z,100395.55
2018-12-04T06:53:22.174Z,100404.36
2018-12-04T06:55:50.623Z,100413.30
2018-12-04T06:58:18.246Z,100412.55
2018-12-04T07:00:45.931Z,100420.09
2018-12-04T07:03:15.628Z,100428.33
2018-12-04T07:05:43.828Z,100438.56
2018-12-04T07:08:11.444Z,100447.08
2018-12-04T07:10:39.108Z,100458.08
2018-12-04T07:13:06.743Z,100467.22
2018-12-04T07:15:34.507Z,100473.63
2018-12-04T07:18:02.938Z,100483.91
2018-12-04T07:20:30.606Z,100491.52
2018-12-04T07:22:58.265Z,100500.81
2018-12-04T07:25:25.881Z,100502.95
2018-12-04T07:27:54.336Z,100510.81
2018-12-04T07:30:23.065Z,100517.88
2018-12-04T07:32:51.556Z,100528.23
2018-12-04T07:35:20.105Z,100542.03
2018-12-04T07:37:47.719Z,100556.83
2018-12-04T07:40:16.281Z,100549.95
2018-12-04T07:42:44.810Z,100565.84
2018-12-04T07:45:13.929Z,100574.45
2018-12-04T07:47:42.648Z,100569.00
2018-12-04T07:50:10.276Z,100581.08
2018-12-04T07:52:38.705Z,100589.44
2018-12-04T07:55:06.435Z,100610.37
2018-12-04T07:57:34.847Z,100616.08
2018-12-04T08:00:04.881Z,100618.34
2018-12-04T08:02:33.489Z,100625.70
2018-12-04T08:05:02.050Z,100634.30
2018-12-04T08:07:30.492Z,100634.71
2018-12-04T08:09:58.965Z,100643.89
2018-12-04T08:12:26.586Z,100657.46
2018-12-04T08:14:54.272Z,100661.08
2018-12-04T08:17:21.904Z,100669.41
2018-12-04T08:19:50.306Z,100673.46
2018-12-04T08:22:17.945Z,100677.17
2018-12-04T08:24:46.426Z,100683.44
2018-12-04T08:27:14.963Z,100688.75
2018-12-04T08:29:43.693Z,100691.66
2018-12-04T08:32:11.359Z,100704.02
2018-12-04T08:34:39.782Z,100707.91
2018-12-04T08:37:08.394Z,100717.84
2018-12-04T08:39:36.844Z,100728.20
2018-12-04T08:42:05.309Z,100725.67
2018-12-04T08:44:33.976Z,100731.08
2018-12-04T08:47:01.604Z,100736.58
2018-12-04T08:49:29.251Z,100744.69
2018-12-04T08:51:56.876Z,100748.78
2018-12-04T08:54:24.507Z,100759.58
2018-12-04T08:56:52.374Z,100762.30
2018-12-04T08:59:20.111Z,100773.00
2018-12-04T09:01:47.798Z,100778.00
2018-12-04T09:04:15.445Z,100783.97
2018-12-04T09:06:44.105Z,100782.39
2018-12-04T09:09:13.410Z,100791.41
2018-12-04T09:11:41.042Z,100802.27
2018-12-04T09:14:08.852Z,100797.42
2018-12-04T09:16:37.260Z,100802.58
2018-12-04T09:19:04.916Z,100813.66
2018-12-04T09:21:32.678Z,100812.46
2018-12-04T09:24:00.367Z,100818.88
2018-12-04T09:26:28.836Z,100836.64
2018-12-04T09:28:56.805Z,100842.22
2018-12-04T09:31:24.518Z,100837.95
2018-12-04T09:33:53.079Z,100843.14
2018-12-04T09:36:21.560Z,100843.53
2018-12-04T09:38:49.344Z,100840.61
2018-12-04T09:41:17.864Z,100840.52
2018-12-04T09:43:45.712Z,100850.81
2018-12-04T09:46:13.895Z,100852.32
2018-12-04T09:48:41.523Z,100854.38
2018-12-04T09:51:09.313Z,100856.39
2018-12-04T09:53:36.941Z,100863.25
2018-12-04T09:56:04.721Z,100867.31
2018-12-04T09:58:32.513Z,100873.86
2018-12-04T10:01:00.315Z,100867.02
2018-12-04T10:03:28.059Z,100870.84
2018-12-04T10:05:55.849Z,100880.77
2018-12-04T10:08:24.654Z,100877.80
2018-12-04T10:10:52.645Z,100883.75
2018-12-04T10:13:21.074Z,100880.26
2018-12-04T10:15:48.851Z,100884.39
2018-12-04T10:18:16.787Z,100889.19
2018-12-04T10:20:45.367Z,100889.41
2018-12-04T10:23:13.189Z,100897.03
2018-12-04T10:25:43.755Z,100895.39
2018-12-04T10:28:11.490Z,100887.66
2018-12-04T10:30:42.461Z,100898.03
2018-12-04T10:33:10.182Z,100906.88
2018-12-04T10:35:38.627Z,100895.28
2018-12-04T10:38:07.221Z,100906.30
2018-12-04T10:40:35.957Z,100905.34
2018-12-04T10:43:03.873Z,100917.33
2018-12-04T10:45:31.615Z,100918.23
2018-12-04T10:48:00.442Z,100923.79
2018-12-04T10:50:28.247Z,100932.41
2018-12-04T10:52:56.042Z,100923.92
2018-12-04T10:55:23.949Z,100925.24
2018-12-04T10:57:51.609Z,100926.72
2018-12-04T11:00:24.884Z,100934.11
2018-12-04T11:02:54.487Z,100939.48
2018-12-04T11:05:22.121Z,100951.05
2018-12-04T11:07:49.739Z,100952.72
2018-12-04T11:10:17.503Z,100960.11
2018-12-04T11:12:45.189Z,100966.41
2018-12-04T11:15:13.727Z,100963.69
2018-12-04T11:17:41.391Z,100974.33
2018-12-04T11:20:10.291Z,100965.37
2018-12-04T11:22:37.947Z,100968.67
2018-12-04T11:25:07.377Z,100974.00
2018-12-04T11:27:35.837Z,100987.10
2018-12-04T11:30:06.366Z,100973.02
2018-12-04T11:32:33.979Z,100977.50
2018-12-04T11:35:01.802Z,100987.59
2018-12-04T11:37:29.603Z,100995.25
2018-12-04T11:39:57.316Z,100998.10
2018-12-04T11:42:25.106Z,100993.66
2018-12-04T11:44:53.552Z,101004.80
2018-12-04T11:47:21.213Z,101009.47
2018-12-04T11:49:49.005Z,101009.27
2018-12-04T11:52:16.815Z,101013.70
2018-12-04T11:54:46.080Z,101017.44
2018-12-04T11:57:14.147Z,101028.34
2018-12-04T11:59:43.338Z,101028.41
2018-12-04T12:02:11.096Z,101030.53
2018-12-04T12:04:39.624Z,101026.08
2018-12-04T12:07:08.218Z,101044.94
2018-12-04T12:09:35.863Z,101041.96
2018-12-04T12:12:03.613Z,101051.54
2018-12-04T12:14:31.251Z,101063.85
2018-12-04T12:16:59.021Z,101059.52
2018-12-04T12:19:27.590Z,101061.06
2018-12-04T12:21:55.270Z,101060.89
2018-12-04T12:24:22.901Z,101063.31
2018-12-04T12:26:50.526Z,101063.96
2018-12-04T12:29:18.198Z,101067.13
2018-12-04T12:31:45.826Z,101074.44
2018-12-04T12:34:15.467Z,101080.80
2018-12-04T12:36:43.444Z,101093.55
2018-12-04T12:39:11.947Z,101082.08
2018-12-04T12:41:40.587Z,101086.46
2018-12-04T12:44:09.058Z,101091.59
2018-12-04T12:46:37.506Z,101101.73
2018-12-04T12:49:05.252Z,101093.83
2018-12-04T12:51:33.057Z,101101.55
2018-12-04T12:54:00.755Z,101103.73
2018-12-04T12:56:28.609Z,101108.00
2018-12-04T12:58:56.439Z,101118.64
2018-12-04T13:01:24.056Z,101116.50
2018-12-04T13:03:51.791Z,101125.08
2018-12-04T13:06:19.415Z,101125.24
2018-12-04T13:08:47.061Z,101136.47
2018-12-04T13:11:16.009Z,101134.05
2018-12-04T13:13:44.716Z,101140.42
2018-12-04T13:16:12.513Z,101147.77
2018-12-04T13:18:40.160Z,101151.56
2018-12-04T13:21:07.786Z,101152.91
2018-12-04T13:23:35.456Z,101157.30
2018-12-04T13:26:03.094Z,101158.97
2018-12-04T13:28:30.903Z,101161.02
2018-12-04T13:30:59.562Z,101165.80
2018-12-04T13:33:28.179Z,101178.05
2018-12-04T13:35:56.696Z,101183.63
2018-12-04T13:38:25.123Z,101180.45
2018-12-04T13:40:53.872Z,101184.62
2018-12-04T13:43:21.503Z,101180.58
2018-12-04T13:45:49.124Z,101185.62
2018-12-04T13:48:16.793Z,101191.16
2018-12-04T13:50:45.356Z,101204.66
2018-12-04T13:53:15.096Z,101221.60
2018-12-04T13:55:43.725Z,101244.69
2018-12-04T13:58:12.650Z,101250.10
2018-12-04T14:00:41.154Z,101241.03
2018-12-04T14:03:09.730Z,101242.28
2018-12-04T14:05:38.267Z,101252.07
2018-12-04T14:08:07.814Z,101247.88
2018-12-04T14:10:36.526Z,101249.30
2018-12-04T14:13:05.239Z,101245.52
2018-12-04T14:15:34.171Z,101258.46
2018-12-04T14:18:01.951Z,101258.55
2018-12-04T14:20:30.567Z,101254.64
2018-12-04T14:22:58.200Z,101261.45
2018-12-04T14:25:26.822Z,101278.72
2018-12-04T14:27:55.389Z,101282.44
2018-12-04T14:30:23.903Z,101289.84
2018-12-04T14:32:52.454Z,101292.78
2018-12-04T14:35:20.082Z,101299.23
2018-12-04T14:37:48.568Z,101301.38
2018-12-04T14:40:16.320Z,101309.95
2018-12-04T14:42:44.889Z,101312.59
2018-12-04T14:45:13.557Z,101317.33
2018-12-04T14:47:41.229Z,101326.06
2018-12-04T14:50:09.202Z,101337.55
2018-12-04T14:52:36.967Z,101344.03
2018-12-04T14:55:06.330Z,101344.09
2018-12-04T14:57:34.930Z,101345.77
2018-12-04T15:00:05.500Z,101353.96
2018-12-04T15:02:33.184Z,101359.13
2018-12-04T15:05:01.792Z,101363.13
2018-12-04T15:07:30.303Z,101371.24
2018-12-04T15:09:58.205Z,101374.31
2018-12-04T15:12:26.019Z,101376.13
2018-12-04T15:14:54.576Z,101386.84
2018-12-04T15:17:22.212Z,101386.94
2018-12-04T15:19:49.828Z,101395.12
2018-12-04T15:22:17.469Z,101402.41
2018-12-04T15:24:45.131Z,101407.61
2018-12-04T15:27:13.509Z,101408.55
2018-12-04T15:29:41.158Z,101411.14
2018-12-04T15:32:08.988Z,101415.81
2018-12-04T15:34:36.833Z,101422.23
2018-12-04T15:37:04.719Z,101432.56
2018-12-04T15:39:32.532Z,101432.17
2018-12-04T15:42:00.349Z,101441.64
2018-12-04T15:44:28.101Z,101450.19
2018-12-04T15:46:55.941Z,101449.33
2018-12-04T15:49:23.692Z,101460.94
2018-12-04T15:51:51.478Z,101461.39
2018-12-04T15:54:19.211Z,101470.48
2018-12-04T15:56:46.844Z,101476.12
2018-12-04T15:59:14.796Z,101473.56
2018-12-04T16:01:42.428Z,101473.53
2018-12-04T16:04:10.088Z,101480.52
2018-12-04T16:06:37.726Z,101480.50
2018-12-04T16:09:07.019Z,101493.86
2018-12-04T16:11:34.649Z,101502.00
2018-12-04T16:14:02.269Z,101505.44
2018-12-04T16:16:30.978Z,101505.94
2018-12-04T16:18:58.604Z,101516.30
2018-12-04T16:21:26.242Z,101524.09
2018-12-04T16:23:53.876Z,101530.10
2018-12-04T16:26:21.573Z,101530.98
2018-12-04T16:28:49.345Z,101532.76
2018-12-04T16:31:17.142Z,101542.25
2018-12-04T16:33:44.755Z,101542.67
2018-12-04T16:36:12.475Z,101549.16
2018-12-04T16:38:40.138Z,101556.47
2018-12-04T16:41:08.589Z,101555.63
2018-12-04T16:43:36.269Z,101565.95
2018-12-04T16:46:04.052Z,101577.60
2018-12-04T16:48:31.674Z,101572.03
2018-12-04T16:51:00.107Z,101573.31
2018-12-04T16:53:27.741Z,101575.51
2018-12-04T16:55:56.301Z,101584.55
2018-12-04T16:58:25.202Z,101586.25
2018-12-04T17:00:53.991Z,101587.98
2018-12-04T17:03:21.634Z,101599.61
2018-12-04T17:05:49.263Z,101611.64
2018-12-04T17:08:16.879Z,101608.21
2018-12-04T17:10:45.921Z,101618.12
2018-12-04T17:13:13.610Z,101613.80
2018-12-04T17:15:41.373Z,101619.41
2018-12-04T17:18:09.019Z,101624.13
2018-12-04T17:20:36.636Z,101624.97
2018-12-04T17:23:04.259Z,101634.44
2018-12-04T17:25:32.668Z,101637.86
2018-12-04T17:28:00.302Z,101641.74
2018-12-04T17:30:28.309Z,101639.58
2018-12-04T17:32:56.204Z,101652.92
2018-12-04T17:35:23.830Z,101658.08
2018-12-04T17:37:51.455Z,101657.63
2018-12-04T17:40:20.061Z,101661.06
2018-12-04T17:42:47.708Z,101665.81
2018-12-04T17:45:16.114Z,101668.39
2018-12-04T17:47:44.679Z,101670.95
2018-12-04T17:50:12.558Z,101676.97
2018-12-04T17:52:40.268Z,101676.10
2018-12-04T17:55:08.027Z,101673.95
2018-12-04T17:57:35.669Z,101681.25
2018-12-04T18:00:09.816Z,101678.24
2018-12-04T18:02:37.447Z,101675.25
2018-12-04T18:05:05.211Z,101681.66
2018-12-04T18:07:32.893Z,101687.25
2018-12-04T18:10:00.520Z,101686.83
2018-12-04T18:12:28.150Z,101696.25
2018-12-04T18:15:03.673Z,101700.55
2018-12-04T18:17:31.289Z,101702.28
2018-12-04T18:20:00.023Z,101703.98
2018-12-04T18:22:28.840Z,101711.28
2018-12-04T18:24:58.375Z,101719.02
2018-12-04T18:27:26.058Z,101718.16
2018-12-04T18:29:53.859Z,101727.58
2018-12-04T18:32:21.466Z,101728.00
2018-12-04T18:34:49.137Z,101732.72
2018-12-04T18:37:17.129Z,101740.89
2018-12-04T18:39:44.785Z,101742.16
2018-12-04T18:42:13.528Z,101744.73
2018-12-04T18:44:41.226Z,101744.73
2018-12-04T18:47:08.926Z,101747.33
2018-12-04T18:49:37.484Z,101742.98
2018-12-04T18:52:05.125Z,101745.11
2018-12-04T18:54:32.924Z,101742.96
2018-12-04T18:57:00.553Z,101749.37
2018-12-04T18:59:28.336Z,101749.36
2018-12-04T19:01:57.373Z,101754.55
2018-12-04T19:04:25.215Z,101751.05
2018-12-04T19:06:52.853Z,101751.89
2018-12-04T19:09:20.473Z,101758.33
2018-12-04T19:11:49.127Z,101760.42
2018-12-04T19:14:16.764Z,101768.11
2018-12-04T19:16:45.401Z,101776.70
2018-12-04T19:19:13.829Z,101777.50
2018-12-04T19:21:42.607Z,101780.44
2018-12-04T19:24:10.285Z,101777.81
2018-12-04T19:26:38.100Z,101791.99
2018-12-04T19:29:05.877Z,101785.13
2018-12-04T19:31:33.696Z,101785.06
2018-12-04T19:34:01.307Z,101795.36
2018-12-04T19:36:29.093Z,101795.39
2018-12-04T19:38:56.912Z,101798.81
2018-12-04T19:41:24.729Z,101809.97
2018-12-04T19:43:56.441Z,101813.36
2018-12-04T19:46:22.258Z,101806.92
2018-12-04T19:48:49.960Z,101822.80
2018-12-04T19:51:18.632Z,101824.08
2018-12-04T19:53:47.044Z,101832.58
2018-12-04T19:56:14.668Z,101824.44
2018-12-04T19:58:42.440Z,101830.43
2018-12-04T20:01:10.186Z,101835.18
2018-12-04T20:03:37.859Z,101835.97
2018-12-04T20:06:06.395Z,101850.15
2018-12-04T20:13:37.070Z,101851.78
2018-12-04T20:16:05.711Z,101862.50
2018-12-04T20:18:33.325Z,101870.64
2018-12-04T20:21:01.890Z,101877.06
2018-12-04T20:23:30.540Z,101882.08
2018-12-04T20:25:59.110Z,101875.66
2018-12-04T20:28:26.724Z,101879.03
2018-12-04T20:30:54.347Z,101891.08
2018-12-04T20:33:22.053Z,101893.65
2018-12-04T20:35:49.677Z,101899.21
2018-12-04T20:38:17.310Z,101896.21
2018-12-04T20:40:44.949Z,101897.45
2018-12-04T20:43:13.584Z,101900.45
2018-12-04T20:45:42.572Z,101906.02
2018-12-04T20:48:10.276Z,101909.88
2018-12-04T20:50:38.063Z,101917.22
2018-12-04T20:53:06.514Z,101920.64
2018-12-04T20:55:35.049Z,101931.15
2018-12-04T20:58:02.837Z,101926.86
2018-12-04T21:00:31.357Z,101925.58
2018-12-04T21:02:58.977Z,101926.05
2018-12-04T21:05:26.585Z,101931.63
2018-12-04T21:07:54.269Z,101933.34
2018-12-04T21:10:21.980Z,101933.72
2018-12-04T21:12:50.396Z,101937.25
2018-12-04T21:15:18.314Z,101943.66
2018-12-04T21:17:45.992Z,101942.39
2018-12-04T21:20:15.388Z,101944.00
2018-12-04T21:22:43.136Z,101946.72
2018-12-04T21:25:10.761Z,101954.00
2018-12-04T21:27:44.061Z,101949.67
2018-12-04T21:30:17.487Z,101964.62
2018-12-04T21:32:50.842Z,101965.91
2018-12-04T21:35:24.383Z,101976.17
2018-12-04T21:37:57.769Z,101980.45
2018-12-04T21:40:31.149Z,101986.03
2018-12-04T21:43:04.481Z,101986.83
2018-12-04T21:45:37.724Z,101986.45
2018-12-04T21:48:06.368Z,101989.81
2018-12-04T21:50:33.964Z,101996.62
2018-12-04T21:53:01.621Z,101996.08
2018-12-04T21:55:29.245Z,101999.55
2018-12-04T21:57:57.774Z,102006.52
2018-12-04T22:00:25.453Z,101999.56
2018-12-04T22:02:53.108Z,102004.75
2018-12-04T22:05:20.768Z,102000.42
2018-12-04T22:07:48.492Z,102014.98
2018-12-04T22:10:16.146Z,102016.68
2018-12-04T22:12:43.868Z,102016.69
2018-12-04T22:15:12.429Z,102021.94
2018-12-04T22:17:40.989Z,102031.86
2018-12-04T22:20:08.610Z,102029.66
2018-12-04T22:22:37.246Z,102036.56
2018-12-04T22:25:05.024Z,102031.33
2018-12-04T22:27:32.648Z,102035.65
2018-12-04T22:30:00.268Z,102047.59
2018-12-04T22:32:27.884Z,102051.80
2018-12-04T22:34:55.507Z,102045.46
2018-12-04T22:37:23.122Z,102047.09
2018-12-04T22:39:50.908Z,102048.81
2018-12-04T22:42:18.519Z,102047.95
2018-12-04T22:44:46.198Z,102047.84
2018-12-04T22:47:14.651Z,102049.17
2018-12-04T22:49:42.315Z,102043.06
2018-12-04T22:52:09.929Z,102041.83
2018-12-04T22:54:37.574Z,102039.21
2018-12-04T22:57:05.310Z,102034.48
2018-12-04T22:59:32.979Z,102040.55
2018-12-04T23:02:00.661Z,102034.56
2018-12-04T23:04:28.315Z,102035.41
2018-12-04T23:06:56.844Z,102036.69
2018-12-04T23:09:24.497Z,102038.34
2018-12-04T23:11:52.235Z,102043.41
2018-12-04T23:14:19.867Z,102047.02
2018-12-04T23:16:47.521Z,102049.05
2018-12-04T23:19:15.144Z,102054.25
2018-12-04T23:21:43.573Z,102052.91
2018-12-04T23:24:11.182Z,102056.28
2018-12-04T23:26:38.833Z,102057.50
2018-12-04T23:29:07.287Z,102059.77
2018-12-04T23:31:35.841Z,102057.13
2018-12-04T23:34:03.651Z,102063.19
2018-12-04T23:36:32.334Z,102057.23
2018-12-04T23:39:00.006Z,102063.59
2018-12-04T23:41:27.656Z,102058.03
2018-12-04T23:43:55.455Z,102063.92
2018-12-04T23:46:23.972Z,102074.25
2018-12-04T23:48:52.553Z,102072.52
2018-12-04T23:51:21.284Z,102070.70
2018-12-04T23:53:49.891Z,102074.96
2018-12-04T23:56:18.455Z,102075.39
2018-12-04T23:58:46.902Z,102076.77
